Time,TemperatureF,DewpointF,PressureIn,WindDirection,WindDirectionDegrees,WindSpeedMPH,WindSpeedGustMPH,Humidity,HourlyPrecipIn,Conditions,Clouds,dailyrainin,SoftwareType,DateUTC
2013-04-27 00:00:00,55.6,28.4,30.33,East,97,0.0,0.0,35,0.00,,SCT,0.00,VWS V14.01,2013-04-27 07:00:00,
2013-04-27 00:05:00,55.4,28.2,30.33,East,95,0.0,0.0,35,0.00,,SCT,0.00,VWS V14.01,2013-04-27 07:05:00,
2013-04-27 00:10:00,55.2,28.1,30.33,East,94,0.0,0.0,35,0.00,,SCT,0.00,VWS V14.01,2013-04-27 07:10:00,
2013-04-27 00:15:00,55.0,27.9,30.33,SE,129,0.0,0.0,35,0.00,,SCT,0.00,VWS V14.01,2013-04-27 07:15:00,
2013-04-27 00:16:00,55.0,27.9,30.33,ESE,104,0.0,0.0,35,0.00,,SCT,0.00,VWS V14.01,2013-04-27 07:16:00,
2013-04-27 00:21:00,54.9,27.8,30.33,ESE,105,0.0,0.0,35,0.00,,SCT,0.00,VWS V14.01,2013-04-27 07:21:00,
2013-04-27 00:26:00,54.7,27.6,30.33,ESE,104,0.0,0.0,35,0.00,,SCT,0.00,VWS V14.01,2013-04-27 07:26:00,
2013-04-27 00:30:00,54.7,28.3,30.33,ESE,104,0.0,0.0,36,0.00,,SCT,0.00,VWS V14.01,2013-04-27 07:30:00,
2013-04-27 00:31:00,54.7,28.3,30.33,ESE,104,0.0,0.0,36,0.00,,SCT,0.00,VWS V14.01,2013-04-27 07:31:00,
2013-04-27 00:36:00,54.3,28.0,30.33,ESE,104,0.0,0.0,36,0.00,,SCT,0.00,VWS V14.01,2013-04-27 07:36:00,
2013-04-27 00:41:00,54.0,27.6,30.33,East,79,0.0,0.0,36,0.00,,SCT,0.00,VWS V14.01,2013-04-27 07:41:00,
2013-04-27 00:45:00,53.8,27.5,30.33,ENE,72,0.0,0.0,36,0.00,,SCT,0.00,VWS V14.01,2013-04-27 07:45:00,
2013-04-27 00:46:00,53.8,27.5,30.33,ENE,72,0.0,0.0,36,0.00,,SCT,0.00,VWS V14.01,2013-04-27 07:46:00,
2013-04-27 00:51:00,53.4,27.8,30.33,ENE,64,0.0,0.0,37,0.00,,SCT,0.00,VWS V14.01,2013-04-27 07:51:00,
2013-04-27 00:56:00,53.2,27.0,30.33,East,101,0.0,0.0,36,0.00,,SCT,0.00,VWS V14.01,2013-04-27 07:56:00,
2013-04-27 01:00:00,53.2,27.0,30.33,ESE,102,0.0,0.0,36,0.00,,SCT,0.00,VWS V14.01,2013-04-27 08:00:00,
2013-04-27 01:01:00,53.2,27.0,30.33,ESE,102,0.0,0.0,36,0.00,,SCT,0.00,VWS V14.01,2013-04-27 08:01:00,
2013-04-27 01:06:00,53.1,26.8,30.33,East,96,0.0,0.0,36,0.00,,SCT,0.00,VWS V14.01,2013-04-27 08:06:00,
2013-04-27 01:12:00,52.9,26.7,30.33,ESE,104,0.0,0.0,36,0.00,,SCT,0.00,VWS V14.01,2013-04-27 08:12:00,
2013-04-27 01:15:00,52.5,27.0,30.33,ESE,108,0.0,0.0,37,0.00,,SCT,0.00,VWS V14.01,2013-04-27 08:15:00,
2013-04-27 01:17:00,52.3,26.9,30.33,East,83,0.0,0.0,37,0.00,,SCT,0.00,VWS V14.01,2013-04-27 08:17:00,
2013-04-27 01:22:00,52.0,26.5,30.33,SSE,162,0.0,4.9,37,0.00,,SCT,0.00,VWS V14.01,2013-04-27 08:22:00,
2013-04-27 01:27:00,51.8,27.0,30.33,ESE,111,4.0,6.3,38,0.00,,SCT,0.00,VWS V14.01,2013-04-27 08:27:00,
2013-04-27 01:30:00,51.4,27.3,30.33,ESE,120,3.6,6.3,39,0.00,,SCT,0.00,VWS V14.01,2013-04-27 08:30:00,
2013-04-27 01:32:00,51.3,27.2,30.33,ESE,112,4.0,6.3,39,0.00,,SCT,0.00,VWS V14.01,2013-04-27 08:32:00,
2013-04-27 01:37:00,51.1,27.0,30.33,East,84,2.7,6.3,39,0.00,,SCT,0.00,VWS V14.01,2013-04-27 08:37:00,
2013-04-27 01:42:00,50.7,26.7,30.33,SE,136,3.6,6.3,39,0.00,,SCT,0.00,VWS V14.01,2013-04-27 08:42:00,
2013-04-27 01:45:00,50.5,26.5,30.33,SE,126,3.6,6.3,39,0.00,,SCT,0.00,VWS V14.01,2013-04-27 08:45:00,
2013-04-27 01:47:00,50.4,27.0,30.33,ESE,118,3.1,4.9,40,0.00,,SCT,0.00,VWS V14.01,2013-04-27 08:47:00,
2013-04-27 01:52:00,50.2,26.8,30.33,East,83,3.1,5.8,40,0.00,,SCT,0.00,VWS V14.01,2013-04-27 08:52:00,
2013-04-27 01:57:00,50.2,28.0,30.33,ESE,112,2.7,7.6,42,0.00,,SCT,0.00,VWS V14.01,2013-04-27 08:57:00,
2013-04-27 02:00:00,50.2,28.0,30.33,SE,124,4.0,8.1,42,0.00,,SCT,0.00,VWS V14.01,2013-04-27 09:00:00,
2013-04-27 02:02:00,50.2,28.0,30.33,SSW,207,3.6,6.3,42,0.00,,SCT,0.00,VWS V14.01,2013-04-27 09:02:00,
2013-04-27 02:07:00,50.2,28.0,30.33,ESE,108,0.0,6.3,42,0.00,,SCT,0.00,VWS V14.01,2013-04-27 09:07:00,
2013-04-27 02:12:00,49.8,28.2,30.33,South,191,4.9,6.3,43,0.00,,SCT,0.00,VWS V14.01,2013-04-27 09:12:00,
2013-04-27 02:15:00,49.8,28.2,30.33,SE,135,7.6,8.1,43,0.00,,SCT,0.00,VWS V14.01,2013-04-27 09:15:00,
2013-04-27 02:17:00,49.8,28.2,30.33,ESE,111,4.9,7.6,43,0.00,,SCT,0.00,VWS V14.01,2013-04-27 09:17:00,
2013-04-27 02:22:00,49.6,28.1,30.33,SSE,162,5.8,7.6,43,0.00,,SCT,0.00,VWS V14.01,2013-04-27 09:22:00,
2013-04-27 02:27:00,49.5,27.9,30.33,SSW,210,0.0,8.1,43,0.00,,SCT,0.00,VWS V14.01,2013-04-27 09:27:00,
2013-04-27 02:30:00,49.3,27.8,30.33,SSE,155,3.1,8.1,43,0.00,,SCT,0.00,VWS V14.01,2013-04-27 09:30:00,
2013-04-27 02:32:00,49.3,27.8,30.33,SE,125,3.1,5.8,43,0.00,,SCT,0.00,VWS V14.01,2013-04-27 09:32:00,
2013-04-27 02:37:00,48.9,28.0,30.30,South,178,3.1,6.7,44,0.00,,SCT,0.00,VWS V14.01,2013-04-27 09:37:00,
2013-04-27 02:43:00,48.7,27.8,30.30,SE,129,4.9,6.7,44,0.00,,SCT,0.00,VWS V14.01,2013-04-27 09:43:00,
2013-04-27 02:45:00,48.7,27.8,30.30,South,181,0.0,6.7,44,0.00,,SCT,0.00,VWS V14.01,2013-04-27 09:45:00,
2013-04-27 02:48:00,48.6,27.6,30.30,South,179,0.0,4.0,44,0.00,,SCT,0.00,VWS V14.01,2013-04-27 09:48:00,
2013-04-27 02:53:00,48.4,27.5,30.30,South,174,2.2,5.8,44,0.00,,SCT,0.00,VWS V14.01,2013-04-27 09:53:00,
2013-04-27 02:58:00,48.2,28.9,30.30,SSE,150,4.0,7.2,47,0.00,,SCT,0.00,VWS V14.01,2013-04-27 09:58:00,
2013-04-27 03:00:00,50.2,28.0,100.00,SE,124,4.0,8.1,42,0.00,,SCT,0.00,VWS V14.01,2013-04-27 10:00:00,
2013-04-27 03:15:00,49.8,28.2,100.00,SE,135,7.6,8.1,43,0.00,,SCT,0.00,VWS V14.01,2013-04-27 10:15:00,
2013-04-27 03:25:00,47.7,29.0,30.30,SSE,167,3.6,3.6,48,0.00,,SCT,0.00,VWS V14.01,2013-04-27 10:25:00,
2013-04-27 03:30:00,47.7,29.0,30.30,SE,143,3.6,3.6,48,0.00,,SCT,0.00,VWS V14.01,2013-04-27 10:30:00,
2013-04-27 03:35:00,47.7,28.4,30.30,SSW,208,0.0,6.3,47,0.00,,SCT,0.00,VWS V14.01,2013-04-27 10:35:00,
2013-04-27 03:40:00,47.3,28.1,30.30,West,261,3.1,6.3,47,0.00,,SCT,0.00,VWS V14.01,2013-04-27 10:40:00,
2013-04-27 03:45:00,47.1,28.5,30.30,SSW,200,0.0,0.0,48,0.00,,SCT,0.00,VWS V14.01,2013-04-27 10:45:00,
2013-04-27 03:50:00,46.9,28.3,30.30,SSE,151,3.1,6.3,48,0.00,,SCT,0.00,VWS V14.01,2013-04-27 10:50:00,
2013-04-27 03:55:00,46.8,28.1,30.30,SW,214,0.0,6.3,48,0.00,,SCT,0.00,VWS V14.01,2013-04-27 10:55:00,
2013-04-27 04:00:00,46.8,28.6,30.30,South,180,6.3,6.3,49,0.00,,SCT,0.00,VWS V14.01,2013-04-27 11:00:00,
2013-04-27 04:01:00,46.8,28.6,30.30,SE,139,4.5,6.3,49,0.00,,SCT,0.00,VWS V14.01,2013-04-27 11:01:00,
2013-04-27 04:06:00,46.6,29.0,30.27,South,175,4.0,8.3,50,0.00,,SCT,0.00,VWS V14.01,2013-04-27 11:06:00,
2013-04-27 04:11:00,46.8,29.1,30.27,SW,216,0.0,8.3,50,0.00,,SCT,0.00,VWS V14.01,2013-04-27 11:11:00,
2013-04-27 04:15:00,46.6,29.0,30.27,South,187,6.3,8.3,50,0.00,,SCT,0.00,VWS V14.01,2013-04-27 11:15:00,
2013-04-27 04:16:00,46.6,29.0,30.27,SW,216,4.9,6.3,50,0.00,,SCT,0.00,VWS V14.01,2013-04-27 11:16:00,
2013-04-27 04:21:00,46.6,29.0,30.30,WSW,257,4.5,8.1,50,0.00,,SCT,0.00,VWS V14.01,2013-04-27 11:21:00,
2013-04-27 04:26:00,46.4,28.8,30.30,South,173,0.0,8.1,50,0.00,,SCT,0.00,VWS V14.01,2013-04-27 11:26:00,
2013-04-27 04:30:00,46.4,29.3,30.30,SSW,203,4.0,8.1,51,0.00,,SCT,0.00,VWS V14.01,2013-04-27 11:30:00,
2013-04-27 04:31:00,46.2,29.1,30.30,SW,223,0.0,4.0,51,0.00,,SCT,0.00,VWS V14.01,2013-04-27 11:31:00,
2013-04-27 04:36:00,46.0,29.4,30.30,West,274,0.0,6.3,52,0.00,,SCT,0.00,VWS V14.01,2013-04-27 11:36:00,
2013-04-27 04:41:00,46.0,29.4,30.30,SSW,200,3.6,9.6,52,0.00,,SCT,0.00,VWS V14.01,2013-04-27 11:41:00,
2013-04-27 04:45:00,45.9,29.7,30.30,SE,144,6.7,9.6,53,0.00,,SCT,0.00,VWS V14.01,2013-04-27 11:45:00,
2013-04-27 04:46:00,45.7,29.5,30.30,SSW,205,6.3,8.1,53,0.00,,SCT,0.00,VWS V14.01,2013-04-27 11:46:00,
2013-04-27 04:51:00,45.5,29.8,30.30,SW,214,5.4,13.2,54,0.00,,SCT,0.00,VWS V14.01,2013-04-27 11:51:00,
2013-04-27 04:56:00,45.0,29.3,30.30,South,171,5.4,13.2,54,0.00,,SCT,0.00,VWS V14.01,2013-04-27 11:56:00,
2013-04-27 05:00:00,44.8,29.6,30.30,SW,225,2.7,13.2,55,0.00,,SCT,0.00,VWS V14.01,2013-04-27 12:00:00,
2013-04-27 05:01:00,44.6,29.5,30.30,SSW,211,5.4,8.3,55,0.00,,SCT,0.00,VWS V14.01,2013-04-27 12:01:00,
2013-04-27 05:06:00,44.2,29.5,30.30,South,170,3.6,8.3,56,0.00,,SCT,0.00,VWS V14.01,2013-04-27 12:06:00,
2013-04-27 05:11:00,44.2,29.5,30.30,SSW,199,0.0,8.7,56,0.00,,SCT,0.00,VWS V14.01,2013-04-27 12:11:00,
2013-04-27 05:15:00,44.2,29.5,30.30,SE,146,0.0,8.7,56,0.00,,SCT,0.00,VWS V14.01,2013-04-27 12:15:00,
2013-04-27 05:17:00,44.2,29.5,30.30,SSE,150,0.0,0.0,56,0.00,,SCT,0.00,VWS V14.01,2013-04-27 12:17:00,
2013-04-27 05:22:00,44.4,29.3,30.30,SSW,207,3.1,5.8,55,0.00,,SCT,0.00,VWS V14.01,2013-04-27 12:22:00,
2013-04-27 05:27:00,44.4,29.3,30.30,SSE,165,0.0,6.3,55,0.00,,SCT,0.00,VWS V14.01,2013-04-27 12:27:00,
2013-04-27 05:30:00,44.4,29.3,30.30,SSE,151,8.3,8.7,55,0.00,,SCT,0.00,VWS V14.01,2013-04-27 12:30:00,
2013-04-27 05:32:00,44.2,29.5,30.30,SSE,153,5.8,10.1,56,0.00,,SCT,0.00,VWS V14.01,2013-04-27 12:32:00,
2013-04-27 05:37:00,44.1,29.4,30.30,SE,126,5.8,10.1,56,0.00,,SCT,0.00,VWS V14.01,2013-04-27 12:37:00,
2013-04-27 05:42:00,43.7,29.5,30.30,SE,124,3.1,10.1,57,0.00,,SCT,0.00,VWS V14.01,2013-04-27 12:42:00,
2013-04-27 05:45:00,43.7,29.5,30.30,SSW,205,7.6,10.1,57,0.00,,SCT,0.00,VWS V14.01,2013-04-27 12:45:00,
2013-04-27 05:47:00,43.5,29.3,30.30,SSW,206,3.6,9.6,57,0.00,,SCT,0.00,VWS V14.01,2013-04-27 12:47:00,
2013-04-27 05:52:00,43.3,29.1,30.30,SSE,161,3.6,9.6,57,0.00,,SCT,0.00,VWS V14.01,2013-04-27 12:52:00,
2013-04-27 05:57:00,43.3,29.6,30.30,SSE,157,5.4,9.6,58,0.00,,SCT,0.00,VWS V14.01,2013-04-27 12:57:00,
2013-04-27 06:00:00,43.2,29.4,30.30,ESE,123,3.1,9.6,58,0.00,,SCT,0.00,VWS V14.01,2013-04-27 13:00:00,
2013-04-27 06:02:00,43.2,29.4,30.30,SE,130,0.0,6.7,58,0.00,,SCT,0.00,VWS V14.01,2013-04-27 13:02:00,
2013-04-27 06:07:00,43.0,29.2,30.30,SSE,152,8.3,10.5,58,0.00,,SCT,0.00,VWS V14.01,2013-04-27 13:07:00,
2013-04-27 06:12:00,43.2,29.4,30.30,South,179,3.1,10.5,58,0.00,,SCT,0.00,VWS V14.01,2013-04-27 13:12:00,
2013-04-27 06:15:00,43.2,29.4,30.30,SSE,152,3.1,10.5,58,0.00,,SCT,0.00,VWS V14.01,2013-04-27 13:15:00,
2013-04-27 06:17:00,43.2,29.4,30.30,SE,145,4.9,8.3,58,0.00,,SCT,0.00,VWS V14.01,2013-04-27 13:17:00,
2013-04-27 06:23:00,43.2,29.4,30.30,SE,141,5.4,9.6,58,0.00,,SCT,0.00,VWS V14.01,2013-04-27 13:23:00,
2013-04-27 06:28:00,43.0,29.2,30.30,South,189,5.8,9.6,58,0.00,,SCT,0.00,VWS V14.01,2013-04-27 13:28:00,
2013-04-27 06:30:00,43.0,29.2,30.30,SE,133,8.1,9.6,58,0.00,,SCT,0.00,VWS V14.01,2013-04-27 13:30:00,
2013-04-27 06:33:00,42.8,29.1,30.30,SSE,156,8.1,8.1,58,0.00,,SCT,0.00,VWS V14.01,2013-04-27 13:33:00,
2013-04-27 06:38:00,42.8,29.1,30.30,SSW,193,5.4,11.0,58,0.00,,SCT,0.00,VWS V14.01,2013-04-27 13:38:00,
2013-04-27 06:43:00,42.6,29.3,30.30,SSW,197,5.8,11.0,59,0.00,,SCT,0.00,VWS V14.01,2013-04-27 13:43:00,
2013-04-27 06:45:00,42.6,29.3,30.30,SW,235,0.0,11.0,59,0.00,,SCT,0.00,VWS V14.01,2013-04-27 13:45:00,
2013-04-27 06:48:00,42.3,29.4,30.30,South,172,6.3,10.5,60,0.00,,SCT,0.00,VWS V14.01,2013-04-27 13:48:00,
2013-04-27 06:53:00,42.1,29.2,30.30,NW,308,5.4,10.5,60,0.00,,SCT,0.00,VWS V14.01,2013-04-27 13:53:00,
2013-04-27 06:58:00,42.1,29.6,30.30,SSW,208,4.9,10.5,61,0.00,,SCT,0.00,VWS V14.01,2013-04-27 13:58:00,
2013-04-27 07:00:00,42.3,29.8,30.30,ESE,119,6.3,10.5,61,0.00,,SCT,0.00,VWS V14.01,2013-04-27 14:00:00,
2013-04-27 07:03:00,42.3,29.8,30.30,ESE,123,0.0,10.5,61,0.00,,SCT,0.00,VWS V14.01,2013-04-27 14:03:00,
2013-04-27 07:08:00,42.4,29.5,30.30,SSW,205,3.1,10.5,60,0.00,,SCT,0.00,VWS V14.01,2013-04-27 14:08:00,
2013-04-27 07:13:00,42.4,29.5,30.30,South,176,5.8,10.5,60,0.00,,SCT,0.00,VWS V14.01,2013-04-27 14:13:00,
2013-04-27 07:15:00,42.4,29.5,30.30,ENE,78,3.1,10.5,60,0.00,,SCT,0.00,VWS V14.01,2013-04-27 14:15:00,
2013-04-27 07:18:00,42.4,29.5,30.30,SSE,168,6.3,6.3,60,0.00,,SCT,0.00,VWS V14.01,2013-04-27 14:18:00,
2013-04-27 07:24:00,42.6,30.1,30.30,SE,145,3.6,8.3,61,0.00,,SCT,0.00,VWS V14.01,2013-04-27 14:24:00,
2013-04-27 07:29:00,42.8,30.3,30.30,SSE,159,0.0,8.3,61,0.00,,SCT,0.00,VWS V14.01,2013-04-27 14:29:00,
2013-04-27 07:30:00,42.8,30.3,30.30,SE,134,0.0,8.3,61,0.00,,SCT,0.00,VWS V14.01,2013-04-27 14:30:00,
2013-04-27 07:34:00,43.0,30.5,30.30,SE,140,0.0,5.4,61,0.00,,SCT,0.00,VWS V14.01,2013-04-27 14:34:00,
2013-04-27 07:39:00,43.3,30.4,30.30,SE,143,5.8,5.8,60,0.00,,SCT,0.00,VWS V14.01,2013-04-27 14:39:00,
2013-04-27 07:44:00,43.5,30.6,30.30,SSE,156,5.8,10.1,60,0.00,,SCT,0.00,VWS V14.01,2013-04-27 14:44:00,
2013-04-27 07:45:00,43.7,30.3,30.30,SSE,147,7.6,10.1,59,0.00,,SCT,0.00,VWS V14.01,2013-04-27 14:45:00,
2013-04-27 07:49:00,44.1,30.7,30.30,SSE,156,4.9,8.3,59,0.00,,SCT,0.00,VWS V14.01,2013-04-27 14:49:00,
2013-04-27 07:54:00,44.6,30.3,30.30,SE,131,5.8,8.3,57,0.00,,SCT,0.00,VWS V14.01,2013-04-27 14:54:00,
2013-04-27 07:59:00,45.0,30.7,30.30,SSE,151,3.1,8.3,57,0.00,,SCT,0.00,VWS V14.01,2013-04-27 14:59:00,
2013-04-27 08:00:00,45.1,30.8,30.30,SSE,155,4.0,8.3,57,0.00,,SCT,0.00,VWS V14.01,2013-04-27 15:00:00,
2013-04-27 08:04:00,45.5,30.7,30.30,SE,133,4.5,5.4,56,0.00,,SCT,0.00,VWS V14.01,2013-04-27 15:04:00,
2013-04-27 08:09:00,46.0,30.3,30.30,SE,133,3.1,6.3,54,0.00,,SCT,0.00,VWS V14.01,2013-04-27 15:09:00,
2013-04-27 08:14:00,46.2,30.5,30.30,SE,125,3.6,6.3,54,0.00,,SCT,0.00,VWS V14.01,2013-04-27 15:14:00,
2013-04-27 08:15:00,46.4,30.2,30.30,SSE,147,4.9,6.3,53,0.00,,SCT,0.00,VWS V14.01,2013-04-27 15:15:00,
2013-04-27 08:19:00,46.6,30.4,30.30,SSE,153,0.0,4.9,53,0.00,,SCT,0.00,VWS V14.01,2013-04-27 15:19:00,
2013-04-27 08:24:00,47.1,30.4,30.30,East,85,0.0,4.9,52,0.00,,SCT,0.00,VWS V14.01,2013-04-27 15:24:00,
2013-04-27 08:30:00,47.5,30.8,30.30,SSE,159,5.4,8.7,52,0.00,,SCT,0.00,VWS V14.01,2013-04-27 15:30:00,
2013-04-27 08:35:00,48.2,30.9,30.30,SSE,168,0.0,5.4,51,0.00,,SCT,0.00,VWS V14.01,2013-04-27 15:35:00,
2013-04-27 08:40:00,48.7,31.4,30.30,SSE,151,0.0,5.4,51,0.00,,SCT,0.00,VWS V14.01,2013-04-27 15:40:00,
2013-04-27 08:45:00,49.5,31.6,30.30,SE,133,5.8,5.8,50,0.00,,SCT,0.00,VWS V14.01,2013-04-27 15:45:00,
2013-04-27 08:50:00,50.2,31.3,30.27,SSE,153,2.7,6.3,48,0.00,,SCT,0.00,VWS V14.01,2013-04-27 15:50:00,
2013-04-27 08:55:00,50.5,31.6,30.27,ESE,118,5.4,6.3,48,0.00,,SCT,0.00,VWS V14.01,2013-04-27 15:55:00,
2013-04-27 09:00:00,51.3,32.3,30.27,SSE,162,5.8,5.8,48,0.00,,SCT,0.00,VWS V14.01,2013-04-27 16:00:00,
2013-04-27 09:05:00,51.8,32.2,30.30,SSE,162,0.0,6.3,47,0.00,,SCT,0.00,VWS V14.01,2013-04-27 16:05:00,
2013-04-27 09:10:00,52.5,32.9,30.30,South,173,5.4,6.3,47,0.00,,SCT,0.00,VWS V14.01,2013-04-27 16:10:00,
2013-04-27 09:15:00,53.1,32.8,30.30,SSE,154,0.0,0.0,46,0.00,,SCT,0.00,VWS V14.01,2013-04-27 16:15:00,
2013-04-27 09:20:00,54.1,32.2,30.30,ESE,120,3.6,5.8,43,0.00,,SCT,0.00,VWS V14.01,2013-04-27 16:20:00,
2013-04-27 09:25:00,55.4,31.5,30.30,ESE,106,2.7,6.3,40,0.00,,SCT,0.00,VWS V14.01,2013-04-27 16:25:00,
2013-04-27 09:30:00,56.3,31.7,30.30,South,185,4.9,4.9,39,0.00,,SCT,0.00,VWS V14.01,2013-04-27 16:30:00,
2013-04-27 09:35:00,57.6,30.8,30.30,SSE,151,4.9,8.1,36,0.00,,SCT,0.00,VWS V14.01,2013-04-27 16:35:00,
2013-04-27 09:41:00,59.2,30.9,30.30,WSW,241,4.0,8.7,34,0.00,,SCT,0.00,VWS V14.01,2013-04-27 16:41:00,
2013-04-27 09:45:00,59.7,30.6,30.30,WSW,253,0.0,8.7,33,0.00,,SCT,0.00,VWS V14.01,2013-04-27 16:45:00,
2013-04-27 09:46:00,59.9,31.5,30.30,WSW,250,4.0,4.0,34,0.00,,SCT,0.00,VWS V14.01,2013-04-27 16:46:00,
2013-04-27 09:51:00,60.4,30.5,30.30,WSW,253,7.6,8.7,32,0.00,,SCT,0.00,VWS V14.01,2013-04-27 16:51:00,
2013-04-27 09:56:00,61.0,30.2,30.30,SSW,200,5.8,8.7,31,0.00,,SCT,0.00,VWS V14.01,2013-04-27 16:56:00,
2013-04-27 10:00:00,61.3,29.7,30.30,South,181,8.1,10.1,30,0.00,,SCT,0.00,VWS V14.01,2013-04-27 17:00:00,
2013-04-27 10:01:00,61.3,29.7,30.30,SW,222,3.1,8.1,30,0.00,,SCT,0.00,VWS V14.01,2013-04-27 17:01:00,
2013-04-27 10:06:00,61.3,29.7,30.30,West,272,4.0,8.1,30,0.00,,SCT,0.00,VWS V14.01,2013-04-27 17:06:00,
2013-04-27 10:11:00,61.7,30.8,30.30,SE,145,4.0,8.1,31,0.00,,SCT,0.00,VWS V14.01,2013-04-27 17:11:00,
2013-04-27 10:15:00,61.9,30.9,30.30,WNW,301,3.6,8.1,31,0.00,,SCT,0.00,VWS V14.01,2013-04-27 17:15:00,
2013-04-27 10:16:00,62.1,30.3,30.30,SSE,161,6.3,6.3,30,0.00,,SCT,0.00,VWS V14.01,2013-04-27 17:16:00,
2013-04-27 10:21:00,62.2,31.2,30.30,South,169,6.3,8.3,31,0.00,,SCT,0.00,VWS V14.01,2013-04-27 17:21:00,
2013-04-27 10:26:00,62.2,30.5,30.30,SE,134,8.7,12.3,30,0.00,,SCT,0.00,VWS V14.01,2013-04-27 17:26:00,
2013-04-27 10:30:00,62.6,31.6,30.30,SSW,209,8.3,12.3,31,0.00,,SCT,0.00,VWS V14.01,2013-04-27 17:30:00,
2013-04-27 10:31:00,62.8,31.7,30.30,South,169,4.9,8.3,31,0.00,,SCT,0.00,VWS V14.01,2013-04-27 17:31:00,
2013-04-27 10:36:00,63.0,31.1,30.30,SE,126,7.6,8.7,30,0.00,,SCT,0.00,VWS V14.01,2013-04-27 17:36:00,
2013-04-27 10:41:00,63.7,31.7,30.30,SSW,207,4.0,9.6,30,0.00,,SCT,0.00,VWS V14.01,2013-04-27 17:41:00,
2013-04-27 10:45:00,63.9,31.9,30.30,West,272,3.6,9.6,30,0.00,,SCT,0.00,VWS V14.01,2013-04-27 17:45:00,
2013-04-27 10:46:00,64.0,32.0,30.30,WSW,257,4.0,8.3,30,0.00,,SCT,0.00,VWS V14.01,2013-04-27 17:46:00,
2013-04-27 10:52:00,64.4,30.6,30.27,SW,218,7.6,12.3,28,0.00,,SCT,0.00,VWS V14.01,2013-04-27 17:52:00,
2013-04-27 10:57:00,64.8,30.9,30.27,SW,216,3.6,12.3,28,0.00,,SCT,0.00,VWS V14.01,2013-04-27 17:57:00,
2013-04-27 11:00:00,64.9,31.9,30.27,SW,222,4.0,12.3,29,0.00,,SCT,0.00,VWS V14.01,2013-04-27 18:00:00,
2013-04-27 11:02:00,65.1,31.2,30.27,South,174,11.9,11.9,28,0.00,,SCT,0.00,VWS V14.01,2013-04-27 18:02:00,
2013-04-27 11:07:00,64.9,30.2,30.30,South,183,8.1,12.8,27,0.00,,SCT,0.00,VWS V14.01,2013-04-27 18:07:00,
2013-04-27 11:12:00,65.5,31.5,30.30,SSW,207,3.6,12.8,28,0.00,,SCT,0.00,VWS V14.01,2013-04-27 18:12:00,
2013-04-27 11:15:00,65.7,31.7,30.30,SW,220,3.6,12.8,28,0.00,,SCT,0.00,VWS V14.01,2013-04-27 18:15:00,
2013-04-27 11:17:00,65.7,31.7,30.30,SSE,163,5.4,7.6,28,0.00,,SCT,0.00,VWS V14.01,2013-04-27 18:17:00,
2013-04-27 11:22:00,65.7,30.8,30.30,SSW,212,5.4,10.1,27,0.00,,SCT,0.00,VWS V14.01,2013-04-27 18:22:00,
2013-04-27 11:27:00,66.2,28.4,30.30,SSW,200,3.6,10.1,24,0.00,,SCT,0.00,VWS V14.01,2013-04-27 18:27:00,
2013-04-27 11:30:00,66.4,28.5,30.30,SE,133,3.1,10.1,24,0.00,,SCT,0.00,VWS V14.01,2013-04-27 18:30:00,
2013-04-27 11:32:00,66.6,28.7,30.30,WNW,293,3.6,9.6,24,0.00,,SCT,0.00,VWS V14.01,2013-04-27 18:32:00,
2013-04-27 11:37:00,66.9,29.0,30.30,WSW,241,4.0,9.6,24,0.00,,SCT,0.00,VWS V14.01,2013-04-27 18:37:00,
2013-04-27 11:42:00,67.5,29.4,30.30,West,260,6.3,11.0,24,0.00,,SCT,0.00,VWS V14.01,2013-04-27 18:42:00,
2013-04-27 11:45:00,67.5,29.4,30.30,SW,224,5.4,11.0,24,0.00,,SCT,0.00,VWS V14.01,2013-04-27 18:45:00,
2013-04-27 11:47:00,67.6,29.6,30.30,WSW,242,5.4,6.3,24,0.00,,SCT,0.00,VWS V14.01,2013-04-27 18:47:00,
2013-04-27 11:52:00,68.0,28.9,30.30,SSW,209,4.5,10.1,23,0.00,,SCT,0.00,VWS V14.01,2013-04-27 18:52:00,
2013-04-27 11:57:00,68.0,28.9,30.30,NW,312,7.6,10.1,23,0.00,,SCT,0.00,VWS V14.01,2013-04-27 18:57:00,
2013-04-27 12:00:00,68.0,28.9,30.30,WSW,244,3.6,10.1,23,0.00,,SCT,0.00,VWS V14.01,2013-04-27 19:00:00,
2013-04-27 12:02:00,67.8,28.7,30.30,WSW,240,7.2,8.3,23,0.00,,SCT,0.00,VWS V14.01,2013-04-27 19:02:00,
2013-04-27 12:08:00,67.8,28.7,30.30,SW,232,2.7,10.1,23,0.00,,SCT,0.00,VWS V14.01,2013-04-27 19:08:00,
2013-04-27 12:13:00,68.0,28.9,30.30,NNW,336,3.6,10.5,23,0.00,,SCT,0.00,VWS V14.01,2013-04-27 19:13:00,
2013-04-27 12:15:00,68.2,29.0,30.30,WSW,250,5.4,10.5,23,0.00,,SCT,0.00,VWS V14.01,2013-04-27 19:15:00,
2013-04-27 12:18:00,68.0,28.9,30.30,West,277,3.6,10.5,23,0.00,,SCT,0.00,VWS V14.01,2013-04-27 19:18:00,
2013-04-27 12:23:00,68.0,28.9,30.27,ESE,108,8.1,10.5,23,0.00,,SCT,0.00,VWS V14.01,2013-04-27 19:23:00,
2013-04-27 12:28:00,68.2,27.9,30.27,West,263,8.3,12.3,22,0.00,,SCT,0.00,VWS V14.01,2013-04-27 19:28:00,
2013-04-27 12:30:00,68.0,28.9,30.27,South,176,7.2,12.3,23,0.00,,SCT,0.00,VWS V14.01,2013-04-27 19:30:00,
2013-04-27 12:33:00,67.8,28.7,30.27,SE,135,7.6,10.5,23,0.00,,SCT,0.00,VWS V14.01,2013-04-27 19:33:00,
2013-04-27 12:38:00,67.8,28.7,30.27,West,262,7.2,10.5,23,0.00,,SCT,0.00,VWS V14.01,2013-04-27 19:38:00,
2013-04-27 12:43:00,67.6,28.5,30.27,SW,234,7.2,10.5,23,0.00,,SCT,0.00,VWS V14.01,2013-04-27 19:43:00,
2013-04-27 12:45:00,67.6,28.5,30.27,West,272,8.3,10.5,23,0.00,,SCT,0.00,VWS V14.01,2013-04-27 19:45:00,
2013-04-27 12:48:00,67.6,28.5,30.27,WNW,288,4.9,8.7,23,0.00,,SCT,0.00,VWS V14.01,2013-04-27 19:48:00,
2013-04-27 12:53:00,67.8,28.7,30.30,WSW,240,5.4,8.7,23,0.00,,SCT,0.00,VWS V14.01,2013-04-27 19:53:00,
2013-04-27 12:58:00,67.6,28.5,30.30,WSW,252,9.6,12.3,23,0.00,,SCT,0.00,VWS V14.01,2013-04-27 19:58:00,
2013-04-27 13:00:00,67.6,28.5,30.30,SW,214,3.6,12.3,23,0.00,,SCT,0.00,VWS V14.01,2013-04-27 20:00:00,
2013-04-27 13:03:00,67.8,28.7,30.30,West,274,3.6,8.1,23,0.00,,SCT,0.00,VWS V14.01,2013-04-27 20:03:00,
2013-04-27 13:08:00,67.8,28.7,30.27,West,261,10.1,10.1,23,0.00,,SCT,0.00,VWS V14.01,2013-04-27 20:08:00,
2013-04-27 13:13:00,67.5,28.4,30.27,West,267,5.4,11.9,23,0.00,,SCT,0.00,VWS V14.01,2013-04-27 20:13:00,
2013-04-27 13:15:00,67.5,28.4,30.27,NW,318,4.0,11.9,23,0.00,,SCT,0.00,VWS V14.01,2013-04-27 20:15:00,
2013-04-27 13:18:00,67.3,28.2,30.27,WSW,238,2.2,6.3,23,0.00,,SCT,0.00,VWS V14.01,2013-04-27 20:18:00,
2013-04-27 13:24:00,67.5,28.4,30.27,NW,305,5.4,10.1,23,0.00,,SCT,0.00,VWS V14.01,2013-04-27 20:24:00,
2013-04-27 13:29:00,67.8,28.7,30.27,WNW,284,7.2,10.5,23,0.00,,SCT,0.00,VWS V14.01,2013-04-27 20:29:00,
2013-04-27 13:30:00,67.8,28.7,30.27,WSW,256,4.0,10.5,23,0.00,,SCT,0.00,VWS V14.01,2013-04-27 20:30:00,
2013-04-27 13:34:00,68.0,28.9,30.27,SSE,153,6.3,6.7,23,0.00,,SCT,0.00,VWS V14.01,2013-04-27 20:34:00,
2013-04-27 13:39:00,68.2,29.0,30.27,WSW,252,8.3,8.3,23,0.00,,SCT,0.00,VWS V14.01,2013-04-27 20:39:00,
2013-04-27 13:44:00,68.0,28.9,30.27,West,263,0.0,8.3,23,0.00,,SCT,0.00,VWS V14.01,2013-04-27 20:44:00,
2013-04-27 13:45:00,68.0,28.9,30.27,SW,222,4.0,8.3,23,0.00,,SCT,0.00,VWS V14.01,2013-04-27 20:45:00,
2013-04-27 13:49:00,67.5,28.4,30.27,SW,232,2.7,6.3,23,0.00,,SCT,0.00,VWS V14.01,2013-04-27 20:49:00,
2013-04-27 13:54:00,67.1,28.1,30.24,South,176,0.0,8.1,23,0.00,,SCT,0.00,VWS V14.01,2013-04-27 20:54:00,
2013-04-27 13:59:00,67.3,28.2,30.24,NNW,338,5.4,8.1,23,0.00,,SCT,0.00,VWS V14.01,2013-04-27 20:59:00,
2013-04-27 14:00:00,67.3,28.2,30.24,WSW,254,3.1,8.1,23,0.00,,SCT,0.00,VWS V14.01,2013-04-27 21:00:00,
2013-04-27 14:04:00,67.1,28.1,30.27,West,280,5.4,10.5,23,0.00,,SCT,0.00,VWS V14.01,2013-04-27 21:04:00,
2013-04-27 14:09:00,67.1,28.1,30.27,NW,322,8.1,10.5,23,0.00,,SCT,0.00,VWS V14.01,2013-04-27 21:09:00,
2013-04-27 14:14:00,67.3,29.3,30.27,NW,306,3.1,10.5,24,0.00,,SCT,0.00,VWS V14.01,2013-04-27 21:14:00,
2013-04-27 14:15:00,67.3,29.3,30.27,WNW,295,2.7,10.5,24,0.00,,SCT,0.00,VWS V14.01,2013-04-27 21:15:00,
2013-04-27 14:19:00,67.3,29.3,30.27,WNW,300,0.0,6.3,24,0.00,,SCT,0.00,VWS V14.01,2013-04-27 21:19:00,
2013-04-27 14:24:00,67.5,29.4,30.27,WSW,250,0.0,6.3,24,0.00,,SCT,0.00,VWS V14.01,2013-04-27 21:24:00,
2013-04-27 14:29:00,67.8,29.7,30.27,SW,235,2.2,6.3,24,0.00,,SCT,0.00,VWS V14.01,2013-04-27 21:29:00,
2013-04-27 14:30:00,67.8,29.7,30.27,NW,304,0.0,6.3,24,0.00,,SCT,0.00,VWS V14.01,2013-04-27 21:30:00,
2013-04-27 14:35:00,67.8,29.7,30.27,SW,223,0.0,4.0,24,0.00,,SCT,0.00,VWS V14.01,2013-04-27 21:35:00,
2013-04-27 14:40:00,67.6,29.6,30.27,West,281,0.0,4.0,24,0.00,,SCT,0.00,VWS V14.01,2013-04-27 21:40:00,
2013-04-27 14:45:00,67.6,29.6,30.27,SSE,155,0.0,4.0,24,0.00,,SCT,0.00,VWS V14.01,2013-04-27 21:45:00,
2013-04-27 14:50:00,67.6,29.6,30.27,NNW,343,0.0,5.8,24,0.00,,SCT,0.00,VWS V14.01,2013-04-27 21:50:00,
2013-04-27 14:55:00,67.6,29.6,30.27,SW,225,0.0,5.8,24,0.00,,SCT,0.00,VWS V14.01,2013-04-27 21:55:00,
2013-04-27 15:00:00,67.8,29.7,30.27,SSW,198,0.0,0.0,24,0.00,,SCT,0.00,VWS V14.01,2013-04-27 22:00:00,
2013-04-27 15:05:00,67.6,29.6,30.27,WNW,301,3.6,8.1,24,0.00,,SCT,0.00,VWS V14.01,2013-04-27 22:05:00,
2013-04-27 15:10:00,67.6,29.6,30.27,NW,316,0.0,8.1,24,0.00,,SCT,0.00,VWS V14.01,2013-04-27 22:10:00,
2013-04-27 15:15:00,67.6,29.6,30.27,NNW,340,2.7,2.7,24,0.00,,SCT,0.00,VWS V14.01,2013-04-27 22:15:00,
2013-04-27 15:20:00,67.5,29.4,30.27,WNW,288,3.1,11.0,24,0.00,,SCT,0.00,VWS V14.01,2013-04-27 22:20:00,
2013-04-27 15:25:00,67.3,28.2,30.27,SW,236,0.0,11.0,23,0.00,,SCT,0.00,VWS V14.01,2013-04-27 22:25:00,
2013-04-27 15:30:00,67.3,28.2,30.27,West,275,5.4,7.6,23,0.00,,SCT,0.00,VWS V14.01,2013-04-27 22:30:00,
2013-04-27 15:35:00,67.1,28.1,30.24,WNW,282,3.1,8.1,23,0.00,,SCT,0.00,VWS V14.01,2013-04-27 22:35:00,
2013-04-27 15:40:00,67.1,28.1,30.24,WSW,241,3.6,8.1,23,0.00,,SCT,0.00,VWS V14.01,2013-04-27 22:40:00,
2013-04-27 15:45:00,66.7,27.8,30.24,WSW,254,3.1,5.8,23,0.00,,SCT,0.00,VWS V14.01,2013-04-27 22:45:00,
2013-04-27 15:51:00,66.9,27.9,30.24,SW,232,0.0,5.8,23,0.00,,SCT,0.00,VWS V14.01,2013-04-27 22:51:00,
2013-04-27 15:56:00,66.9,27.9,30.24,WNW,301,4.0,6.3,23,0.00,,SCT,0.00,VWS V14.01,2013-04-27 22:56:00,
2013-04-27 16:00:00,66.7,27.8,30.24,WSW,243,5.8,6.3,23,0.00,,SCT,0.00,VWS V14.01,2013-04-27 23:00:00,
2013-04-27 16:01:00,66.7,27.8,30.24,West,272,3.6,5.8,23,0.00,,SCT,0.00,VWS V14.01,2013-04-27 23:01:00,
2013-04-27 16:06:00,66.6,27.6,30.24,NW,313,5.4,6.3,23,0.00,,SCT,0.00,VWS V14.01,2013-04-27 23:06:00,
2013-04-27 16:11:00,66.7,27.8,30.24,NNW,340,10.1,10.1,23,0.00,,SCT,0.00,VWS V14.01,2013-04-27 23:11:00,
2013-04-27 16:15:00,66.6,27.6,30.24,NW,308,8.1,10.5,23,0.00,,SCT,0.00,VWS V14.01,2013-04-27 23:15:00,
2013-04-27 16:16:00,66.4,27.5,30.24,West,265,4.9,8.7,23,0.00,,SCT,0.00,VWS V14.01,2013-04-27 23:16:00,
2013-04-27 16:21:00,66.2,27.3,30.24,West,259,5.8,10.1,23,0.00,,SCT,0.00,VWS V14.01,2013-04-27 23:21:00,
2013-04-27 16:26:00,66.2,27.3,30.24,NNW,329,6.3,10.1,23,0.00,,SCT,0.00,VWS V14.01,2013-04-27 23:26:00,
2013-04-27 16:30:00,66.2,27.3,30.24,WNW,300,3.6,10.1,23,0.00,,SCT,0.00,VWS V14.01,2013-04-27 23:30:00,
2013-04-27 16:31:00,66.2,27.3,30.24,NW,314,7.6,7.6,23,0.00,,SCT,0.00,VWS V14.01,2013-04-27 23:31:00,
2013-04-27 16:36:00,66.2,27.3,30.24,NW,321,7.6,8.3,23,0.00,,SCT,0.00,VWS V14.01,2013-04-27 23:36:00,
2013-04-27 16:41:00,66.2,27.3,30.24,NNW,328,7.2,8.3,23,0.00,,SCT,0.00,VWS V14.01,2013-04-27 23:41:00,
2013-04-27 16:45:00,66.2,27.3,30.24,WNW,300,3.1,8.3,23,0.00,,SCT,0.00,VWS V14.01,2013-04-27 23:45:00,
2013-04-27 16:46:00,66.2,27.3,30.24,West,279,2.7,4.9,23,0.00,,SCT,0.00,VWS V14.01,2013-04-27 23:46:00,
2013-04-27 16:51:00,66.2,27.3,30.24,NNW,342,6.3,9.2,23,0.00,,SCT,0.00,VWS V14.01,2013-04-27 23:51:00,
2013-04-27 16:56:00,66.2,27.3,30.24,NW,322,2.7,9.2,23,0.00,,SCT,0.00,VWS V14.01,2013-04-27 23:56:00,
2013-04-27 17:00:00,66.2,27.3,30.24,NW,306,0.0,9.2,23,0.00,,SCT,0.00,VWS V14.01,2013-04-28 00:00:00,
2013-04-27 17:01:00,66.2,27.3,30.24,West,266,4.0,4.0,23,0.00,,SCT,0.00,VWS V14.01,2013-04-28 00:01:00,
2013-04-27 17:07:00,66.2,27.3,30.24,SW,233,0.0,4.0,23,0.00,,SCT,0.00,VWS V14.01,2013-04-28 00:07:00,
2013-04-27 17:12:00,66.2,27.3,30.24,NW,306,4.9,8.3,23,0.00,,SCT,0.00,VWS V14.01,2013-04-28 00:12:00,
2013-04-27 17:15:00,66.0,27.2,30.24,WSW,240,2.7,8.7,23,0.00,,SCT,0.00,VWS V14.01,2013-04-28 00:15:00,
2013-04-27 17:17:00,65.8,27.0,30.24,NNW,330,3.1,12.8,23,0.00,,SCT,0.00,VWS V14.01,2013-04-28 00:17:00,
2013-04-27 17:22:00,65.7,26.9,30.24,WNW,297,4.0,12.8,23,0.00,,SCT,0.00,VWS V14.01,2013-04-28 00:22:00,
2013-04-27 17:27:00,65.7,26.9,30.24,NW,312,5.8,12.8,23,0.00,,SCT,0.00,VWS V14.01,2013-04-28 00:27:00,
2013-04-27 17:30:00,65.7,26.9,30.24,West,274,8.1,13.2,23,0.00,,SCT,0.00,VWS V14.01,2013-04-28 00:30:00,
2013-04-27 17:32:00,65.5,26.7,30.24,SE,131,7.2,8.3,23,0.00,,SCT,0.00,VWS V14.01,2013-04-28 00:32:00,
2013-04-27 17:37:00,65.3,26.6,30.24,West,281,12.8,12.8,23,0.00,,SCT,0.00,VWS V14.01,2013-04-28 00:37:00,
2013-04-27 17:42:00,65.1,26.4,30.24,WSW,239,6.3,12.8,23,0.00,,SCT,0.00,VWS V14.01,2013-04-28 00:42:00,
2013-04-27 17:45:00,64.9,26.3,30.24,WSW,247,4.5,12.8,23,0.00,,SCT,0.00,VWS V14.01,2013-04-28 00:45:00,
2013-04-27 17:47:00,64.8,26.1,30.24,West,266,10.5,10.5,23,0.00,,SCT,0.00,VWS V14.01,2013-04-28 00:47:00,
2013-04-27 17:52:00,65.1,26.4,30.21,SW,224,7.2,13.2,23,0.00,,SCT,0.00,VWS V14.01,2013-04-28 00:52:00,
2013-04-27 17:57:00,66.0,27.2,30.21,NW,325,4.0,15.9,23,0.00,,SCT,0.00,VWS V14.01,2013-04-28 00:57:00,
2013-04-27 18:00:00,66.2,27.3,30.21,WNW,282,13.2,15.9,23,0.00,,SCT,0.00,VWS V14.01,2013-04-28 01:00:00,
2013-04-27 18:02:00,66.4,27.5,30.21,NNW,337,10.5,13.2,23,0.00,,SCT,0.00,VWS V14.01,2013-04-28 01:02:00,
2013-04-27 18:07:00,66.6,27.6,30.21,West,277,13.6,13.6,23,0.00,,SCT,0.00,VWS V14.01,2013-04-28 01:07:00,
2013-04-27 18:12:00,66.9,27.9,30.21,NNW,342,8.3,15.4,23,0.00,,SCT,0.00,VWS V14.01,2013-04-28 01:12:00,
2013-04-27 18:15:00,66.9,27.9,30.21,WSW,251,8.3,15.4,23,0.00,,SCT,0.00,VWS V14.01,2013-04-28 01:15:00,
2013-04-27 18:17:00,66.7,27.8,30.21,WSW,248,5.4,12.3,23,0.00,,SCT,0.00,VWS V14.01,2013-04-28 01:17:00,
2013-04-27 18:23:00,66.9,27.9,30.21,WSW,242,8.7,13.6,23,0.00,,SCT,0.00,VWS V14.01,2013-04-28 01:23:00,
2013-04-27 18:28:00,66.9,27.9,30.21,WNW,287,8.3,16.8,23,0.00,,SCT,0.00,VWS V14.01,2013-04-28 01:28:00,
2013-04-27 18:30:00,66.9,27.9,30.21,West,279,6.3,16.8,23,0.00,,SCT,0.00,VWS V14.01,2013-04-28 01:30:00,
2013-04-27 18:33:00,66.7,27.8,30.21,WSW,258,10.5,12.8,23,0.00,,SCT,0.00,VWS V14.01,2013-04-28 01:33:00,
2013-04-27 18:38:00,66.4,27.5,30.21,West,280,3.6,12.8,23,0.00,,SCT,0.00,VWS V14.01,2013-04-28 01:38:00,
2013-04-27 18:43:00,66.4,27.5,30.21,WSW,241,8.1,16.8,23,0.00,,SCT,0.00,VWS V14.01,2013-04-28 01:43:00,
2013-04-27 18:45:00,66.6,27.6,30.21,WNW,284,8.7,16.8,23,0.00,,SCT,0.00,VWS V14.01,2013-04-28 01:45:00,
2013-04-27 18:48:00,66.6,27.6,30.21,West,277,8.7,14.1,23,0.00,,SCT,0.00,VWS V14.01,2013-04-28 01:48:00,
2013-04-27 18:53:00,66.4,28.5,30.21,WSW,237,3.6,15.0,24,0.00,,SCT,0.00,VWS V14.01,2013-04-28 01:53:00,
2013-04-27 18:58:00,66.2,28.4,30.21,SW,222,12.3,15.0,24,0.00,,SCT,0.00,VWS V14.01,2013-04-28 01:58:00,
2013-04-27 19:00:00,66.2,28.4,30.21,WNW,293,5.8,15.0,24,0.00,,SCT,0.00,VWS V14.01,2013-04-28 02:00:00,
2013-04-27 19:03:00,65.8,28.1,30.21,SW,229,5.4,15.0,24,0.00,,SCT,0.00,VWS V14.01,2013-04-28 02:03:00,
2013-04-27 19:08:00,65.7,27.9,30.24,SW,231,6.3,15.0,24,0.00,,SCT,0.00,VWS V14.01,2013-04-28 02:08:00,
2013-04-27 19:13:00,65.5,27.8,30.24,NW,312,8.1,15.0,24,0.00,,SCT,0.00,VWS V14.01,2013-04-28 02:13:00,
2013-04-27 19:15:00,65.3,27.6,30.24,NW,324,8.1,15.0,24,0.00,,SCT,0.00,VWS V14.01,2013-04-28 02:15:00,
2013-04-27 19:18:00,64.9,27.3,30.24,North,0,6.3,12.8,24,0.00,,SCT,0.00,VWS V14.01,2013-04-28 02:18:00,
2013-04-27 19:24:00,64.6,27.0,30.24,West,276,4.0,13.2,24,0.00,,SCT,0.00,VWS V14.01,2013-04-28 02:24:00,
2013-04-27 19:29:00,64.2,27.7,30.24,NE,39,7.6,13.2,25,0.00,,SCT,0.00,VWS V14.01,2013-04-28 02:29:00,
2013-04-27 19:30:00,64.0,27.5,30.24,West,278,3.6,13.2,25,0.00,,SCT,0.00,VWS V14.01,2013-04-28 02:30:00,
2013-04-27 19:34:00,63.5,27.1,30.24,NW,317,10.5,11.0,25,0.00,,SCT,0.00,VWS V14.01,2013-04-28 02:34:00,
2013-04-27 19:39:00,63.1,26.8,30.24,WNW,300,8.7,11.0,25,0.00,,SCT,0.00,VWS V14.01,2013-04-28 02:39:00,
2013-04-27 19:44:00,62.1,25.9,30.24,West,281,9.6,14.5,25,0.00,,SCT,0.00,VWS V14.01,2013-04-28 02:44:00,
2013-04-27 19:45:00,61.9,25.7,30.24,NW,320,5.4,14.5,25,0.00,,SCT,0.00,VWS V14.01,2013-04-28 02:45:00,
2013-04-27 19:49:00,61.5,25.4,30.24,NW,315,12.3,12.3,25,0.00,,SCT,0.00,VWS V14.01,2013-04-28 02:49:00,
2013-04-27 19:54:00,61.0,24.9,30.24,West,270,5.8,12.8,25,0.00,,SCT,0.00,VWS V14.01,2013-04-28 02:54:00,
2013-04-27 19:59:00,60.6,25.6,30.24,WNW,299,6.3,12.8,26,0.00,,SCT,0.00,VWS V14.01,2013-04-28 02:59:00,
2013-04-27 20:00:00,60.4,25.4,30.24,NW,321,5.4,12.8,26,0.00,,SCT,0.00,VWS V14.01,2013-04-28 03:00:00,
2013-04-27 20:04:00,60.1,25.1,30.24,WNW,284,0.0,8.3,26,0.00,,SCT,0.00,VWS V14.01,2013-04-28 03:04:00,
2013-04-27 20:15:00,65.3,27.6,100.00,NW,324,8.1,15.0,24,0.00,,SCT,0.00,VWS V14.01,2013-04-28 03:15:00,
2013-04-27 20:30:00,64.0,27.5,100.00,West,278,3.6,13.2,25,0.00,,SCT,0.00,VWS V14.01,2013-04-28 03:30:00,
2013-04-27 20:45:00,61.9,25.7,100.00,NW,320,5.4,14.5,25,0.00,,SCT,0.00,VWS V14.01,2013-04-28 03:45:00,
2013-04-27 21:00:00,60.4,25.4,100.00,NW,321,5.4,12.8,26,0.00,,SCT,0.00,VWS V14.01,2013-04-28 04:00:00,